createdAt,value
2023-02-06T03:59:27.579Z,1035.24
2023-02-06T04:00:27.522Z,1035.28
2023-02-06T04:01:25.933Z,1035.27
2023-02-06T04:02:27.542Z,1035.27
2023-02-06T04:03:27.511Z,1035.24
2023-02-06T04:04:27.512Z,1035.22
2023-02-06T04:05:27.513Z,1035.18
2023-02-06T04:06:27.524Z,1035.18
2023-02-06T04:07:27.532Z,1035.20
2023-02-06T04:08:27.524Z,1035.19
2023-02-06T04:09:27.510Z,1035.20
2023-02-06T04:10:27.523Z,1035.24
2023-02-06T04:11:27.513Z,1035.24
2023-02-06T04:12:27.533Z,1035.31
2023-02-06T04:13:27.531Z,1035.32
2023-02-06T04:14:27.525Z,1035.32
2023-02-06T04:15:27.544Z,1035.27
2023-02-06T04:16:27.594Z,1035.26
2023-02-06T04:17:43.097Z,1035.17
2023-02-06T04:18:25.799Z,1035.20
2023-02-06T04:19:25.767Z,1035.19
2023-02-06T04:20:25.764Z,1035.14
2023-02-06T04:21:25.763Z,1035.10
2023-02-06T04:22:27.547Z,1035.02
2023-02-06T04:23:27.051Z,1035.05
2023-02-06T04:24:29.874Z,1035.02
2023-02-06T04:25:25.738Z,1034.97
2023-02-06T04:26:25.749Z,1034.99
2023-02-06T04:27:27.653Z,1034.93
2023-02-06T04:28:27.043Z,1034.98
2023-02-06T04:29:25.733Z,1035.04
2023-02-06T04:30:27.594Z,1035.07
2023-02-06T04:31:25.808Z,1035.10
2023-02-06T04:32:25.712Z,1035.10
2023-02-06T04:33:25.698Z,1035.10
2023-02-06T04:34:25.689Z,1035.11
2023-02-06T04:35:27.556Z,1035.09
2023-02-06T04:36:26.678Z,1035.11
2023-02-06T04:37:27.572Z,1035.09
2023-02-06T04:38:26.662Z,1035.08
2023-02-06T04:39:25.657Z,1035.10
2023-02-06T04:40:27.558Z,1035.10
2023-02-06T04:41:25.653Z,1035.12
2023-02-06T04:42:27.539Z,1035.12
2023-02-06T04:43:26.647Z,1035.07
2023-02-06T04:44:27.558Z,1035.09
2023-02-06T04:45:25.630Z,1035.10
2023-02-06T04:46:25.672Z,1035.09
2023-02-06T04:47:26.662Z,1035.12
2023-02-06T04:48:27.568Z,1035.10
2023-02-06T04:49:27.551Z,1035.08
2023-02-06T04:50:27.558Z,1035.07
2023-02-06T04:51:27.569Z,1035.11
2023-02-06T04:52:27.556Z,1035.11
2023-02-06T04:53:27.063Z,1035.17
2023-02-06T04:54:27.554Z,1035.15
2023-02-06T04:55:27.577Z,1035.15
2023-02-06T04:56:27.569Z,1035.15
2023-02-06T04:57:26.576Z,1035.16
2023-02-06T04:58:25.573Z,1035.20
2023-02-06T04:59:25.561Z,1035.20
2023-02-06T05:00:25.587Z,1035.20
2023-02-06T05:01:27.104Z,1035.16
2023-02-06T05:02:25.583Z,1035.14
2023-02-06T05:03:25.576Z,1035.15
2023-02-06T05:04:25.560Z,1035.16
2023-02-06T05:05:27.089Z,1035.13
2023-02-06T05:06:27.080Z,1035.13
2023-02-06T05:07:27.080Z,1035.11
2023-02-06T05:08:27.077Z,1035.10
2023-02-06T05:09:27.537Z,1035.13
2023-02-06T05:10:27.064Z,1035.11
2023-02-06T05:11:27.092Z,1035.13
2023-02-06T05:12:27.079Z,1035.12
2023-02-06T05:13:27.070Z,1035.13
2023-02-06T05:14:27.089Z,1035.10
2023-02-06T05:15:27.063Z,1035.08
2023-02-06T05:16:27.092Z,1035.05
2023-02-06T05:17:27.094Z,1035.00
2023-02-06T05:18:27.084Z,1034.99
2023-02-06T05:19:27.138Z,1034.97
2023-02-06T05:20:27.071Z,1034.94
2023-02-06T05:21:27.097Z,1034.95
2023-02-06T05:22:26.451Z,1034.93
2023-02-06T05:23:26.436Z,1034.93
2023-02-06T05:24:25.437Z,1034.94
2023-02-06T05:25:25.426Z,1034.92
2023-02-06T05:26:27.081Z,1034.90
2023-02-06T05:27:26.421Z,1034.79
2023-02-06T05:28:26.426Z,1034.80
2023-02-06T05:29:25.410Z,1034.78
2023-02-06T05:30:26.608Z,1034.73
2023-02-06T05:31:26.621Z,1034.70
2023-02-06T05:32:25.398Z,1034.69
2023-02-06T05:33:25.403Z,1034.73
2023-02-06T05:34:25.388Z,1034.69
2023-02-06T05:35:27.107Z,1034.73
2023-02-06T05:36:25.375Z,1034.75
2023-02-06T05:37:27.104Z,1034.79
2023-02-06T05:38:27.085Z,1034.79
2023-02-06T05:39:27.081Z,1034.80
2023-02-06T05:40:27.111Z,1034.82
2023-02-06T05:41:27.084Z,1034.90
2023-02-06T05:42:27.122Z,1034.89
2023-02-06T05:43:27.090Z,1034.90
2023-02-06T05:44:27.096Z,1034.95
2023-02-06T05:45:27.100Z,1034.95
2023-02-06T05:46:27.156Z,1034.90
2023-02-06T05:47:27.087Z,1034.89
2023-02-06T05:48:27.090Z,1034.94
2023-02-06T05:49:27.130Z,1034.95
2023-02-06T05:50:27.103Z,1034.94
2023-02-06T05:51:27.105Z,1034.94
2023-02-06T05:52:27.099Z,1034.95
2023-02-06T05:53:27.122Z,1034.89
2023-02-06T05:54:27.098Z,1034.87
2023-02-06T05:55:27.105Z,1034.83
2023-02-06T05:56:27.112Z,1034.82
2023-02-06T05:57:27.114Z,1034.79
2023-02-06T05:58:27.129Z,1034.74
2023-02-06T05:59:26.272Z,1034.72
2023-02-06T06:00:25.268Z,1034.71
2023-02-06T06:01:25.274Z,1034.73
2023-02-06T06:02:25.270Z,1034.72
2023-02-06T06:03:27.160Z,1034.71
2023-02-06T06:04:25.308Z,1034.67
2023-02-06T06:05:25.247Z,1034.68
2023-02-06T06:06:25.243Z,1034.70
2023-02-06T06:07:27.181Z,1034.73
2023-02-06T06:08:27.131Z,1034.72
2023-02-06T06:09:25.230Z,1034.70
2023-02-06T06:10:27.113Z,1034.68
2023-02-06T06:11:25.222Z,1034.65
2023-02-06T06:12:27.135Z,1034.68
2023-02-06T06:13:27.144Z,1034.68
2023-02-06T06:14:27.175Z,1034.68
2023-02-06T06:15:26.211Z,1034.73
2023-02-06T06:16:27.137Z,1034.71
2023-02-06T06:17:26.201Z,1034.71
2023-02-06T06:18:27.126Z,1034.71
2023-02-06T06:19:27.123Z,1034.72
2023-02-06T06:20:27.126Z,1034.69
2023-02-06T06:21:27.138Z,1034.70
2023-02-06T06:22:27.121Z,1034.68
2023-02-06T06:23:26.187Z,1034.69
2023-02-06T06:24:27.150Z,1034.75
2023-02-06T06:25:25.171Z,1034.74
2023-02-06T06:26:25.170Z,1034.77
2023-02-06T06:27:27.140Z,1034.80
2023-02-06T06:28:25.155Z,1034.79
2023-02-06T06:29:26.144Z,1034.83
2023-02-06T06:30:25.133Z,1034.81
2023-02-06T06:31:25.221Z,1034.76
2023-02-06T06:32:26.657Z,1034.80
2023-02-06T06:33:25.119Z,1034.78
2023-02-06T06:34:26.651Z,1034.74
2023-02-06T06:35:26.146Z,1034.78
2023-02-06T06:36:25.119Z,1034.78
2023-02-06T06:37:25.130Z,1034.80
2023-02-06T06:38:25.098Z,1034.76
2023-02-06T06:39:26.225Z,1034.82
2023-02-06T06:40:26.655Z,1034.81
2023-02-06T06:41:26.076Z,1034.83
2023-02-06T06:42:26.656Z,1034.90
2023-02-06T06:43:26.664Z,1034.90
2023-02-06T06:44:26.653Z,1034.90
2023-02-06T06:45:26.707Z,1034.90
2023-02-06T06:46:25.068Z,1034.92
2023-02-06T06:47:26.641Z,1034.85
2023-02-06T06:48:26.666Z,1034.85
2023-02-06T06:49:28.776Z,1034.84
2023-02-06T06:50:26.669Z,1034.84
2023-02-06T06:51:26.968Z,1034.83
2023-02-06T06:52:26.692Z,1034.83
2023-02-06T06:53:26.667Z,1034.85
2023-02-06T06:54:26.653Z,1034.87
2023-02-06T06:55:26.660Z,1034.88
2023-02-06T06:56:26.650Z,1034.94
2023-02-06T06:57:25.040Z,1034.93
2023-02-06T06:58:26.671Z,1034.94
2023-02-06T06:59:25.005Z,1034.94
2023-02-06T07:00:25.002Z,1034.98
2023-02-06T07:01:25.060Z,1034.97
2023-02-06T07:02:26.782Z,1034.99
2023-02-06T07:03:26.695Z,1034.99
2023-02-06T07:04:26.668Z,1034.96
2023-02-06T07:05:25.962Z,1034.96
2023-02-06T07:06:25.975Z,1034.98
2023-02-06T07:07:25.019Z,1034.93
2023-02-06T07:08:26.229Z,1034.92
2023-02-06T07:09:25.967Z,1034.90
2023-02-06T07:10:24.959Z,1034.92
2023-02-06T07:11:26.718Z,1034.91
2023-02-06T07:12:26.677Z,1034.89
2023-02-06T07:13:26.677Z,1034.93
2023-02-06T07:14:26.685Z,1034.97
2023-02-06T07:15:26.666Z,1034.96
2023-02-06T07:16:26.733Z,1034.96
2023-02-06T07:17:26.730Z,1034.98
2023-02-06T07:18:26.674Z,1034.94
2023-02-06T07:19:26.692Z,1034.92
2023-02-06T07:20:26.681Z,1034.92
2023-02-06T07:21:26.702Z,1034.88
2023-02-06T07:22:26.185Z,1034.90
2023-02-06T07:23:26.688Z,1034.88
2023-02-06T07:24:26.670Z,1034.91
2023-02-06T07:25:24.878Z,1034.86
2023-02-06T07:26:26.674Z,1034.85
2023-02-06T07:27:26.734Z,1034.83
2023-02-06T07:28:24.854Z,1034.85
2023-02-06T07:29:24.861Z,1034.86
2023-02-06T07:30:24.874Z,1034.85
2023-02-06T07:31:26.905Z,1034.86
2023-02-06T07:32:24.891Z,1034.89
2023-02-06T07:33:24.859Z,1034.90
2023-02-06T07:34:26.231Z,1034.90
2023-02-06T07:35:24.834Z,1034.91
2023-02-06T07:36:24.852Z,1034.92
2023-02-06T07:37:24.830Z,1034.93
2023-02-06T07:38:24.824Z,1034.94
2023-02-06T07:39:26.701Z,1034.90
2023-02-06T07:40:26.241Z,1034.94
2023-02-06T07:41:26.728Z,1034.95
2023-02-06T07:42:24.800Z,1034.92
2023-02-06T07:43:24.829Z,1034.94
2023-02-06T07:44:26.725Z,1034.92
2023-02-06T07:45:25.785Z,1034.96
2023-02-06T07:46:26.750Z,1034.95
2023-02-06T07:48:27.716Z,1034.95
2023-02-06T07:50:24.762Z,1034.97
2023-02-06T07:51:24.803Z,1034.96
2023-02-06T07:52:24.821Z,1034.92
2023-02-06T07:53:26.699Z,1034.93
2023-02-06T07:54:26.729Z,1034.89
2023-02-06T07:55:26.699Z,1034.92
2023-02-06T07:56:26.706Z,1034.97
2023-02-06T07:57:26.729Z,1034.96
2023-02-06T07:58:25.728Z,1034.96
2023-02-06T07:59:26.720Z,1034.96
2023-02-06T08:01:26.241Z,1034.93
2023-02-06T08:02:24.720Z,1034.92
2023-02-06T08:03:24.725Z,1034.91
2023-02-06T08:04:26.267Z,1034.91
2023-02-06T08:05:24.692Z,1034.90
2023-02-06T08:06:24.692Z,1034.88
2023-02-06T08:07:24.682Z,1034.87
2023-02-06T08:08:24.681Z,1034.88
2023-02-06T08:09:25.727Z,1034.88
2023-02-06T08:10:24.679Z,1034.90
2023-02-06T08:11:24.668Z,1034.93
2023-02-06T08:12:24.664Z,1034.91
2023-02-06T08:13:24.659Z,1034.92
2023-02-06T08:14:26.233Z,1034.91
2023-02-06T08:15:26.232Z,1034.96
2023-02-06T08:16:24.656Z,1034.97
2023-02-06T08:17:26.214Z,1034.97
2023-02-06T08:18:26.243Z,1034.96
2023-02-06T08:19:26.232Z,1034.98
2023-02-06T08:20:26.223Z,1035.00
2023-02-06T08:21:25.615Z,1035.00
2023-02-06T08:22:26.252Z,1034.95
2023-02-06T08:23:26.223Z,1034.97
2023-02-06T08:24:26.237Z,1034.97
2023-02-06T08:25:26.227Z,1035.05
2023-02-06T08:26:26.221Z,1035.07
2023-02-06T08:27:26.225Z,1035.09
2023-02-06T08:28:25.606Z,1035.10
2023-02-06T08:29:25.782Z,1035.09
2023-02-06T08:30:24.739Z,1035.14
2023-02-06T08:31:24.815Z,1035.12
2023-02-06T08:32:24.663Z,1035.11
2023-02-06T08:33:32.933Z,1035.12
2023-02-06T08:34:26.844Z,1035.12
2023-02-06T08:35:25.614Z,1035.16
2023-02-06T08:36:25.184Z,1035.15
2023-02-06T08:37:26.328Z,1035.17
2023-02-06T08:38:24.743Z,1035.20
2023-02-06T08:39:26.249Z,1035.20
2023-02-06T08:40:24.546Z,1035.22
2023-02-06T08:41:24.547Z,1035.22
2023-02-06T08:42:24.548Z,1035.21
2023-02-06T08:43:24.521Z,1035.23
2023-02-06T08:44:26.255Z,1035.21
2023-02-06T08:45:24.567Z,1035.19
2023-02-06T08:46:24.613Z,1035.13
2023-02-06T08:47:24.793Z,1035.16
2023-02-06T08:48:24.560Z,1035.07
2023-02-06T08:49:25.902Z,1035.10
2023-02-06T08:50:24.567Z,1035.06
2023-02-06T08:51:24.510Z,1035.09
2023-02-06T08:52:24.516Z,1035.12
2023-02-06T08:53:24.478Z,1035.12
2023-02-06T08:54:25.825Z,1035.16
2023-02-06T08:55:25.208Z,1035.16
2023-02-06T08:56:25.134Z,1035.11
2023-02-06T08:57:24.475Z,1035.13
2023-02-06T08:58:24.482Z,1035.15
2023-02-06T08:59:26.530Z,1035.18
2023-02-06T09:00:25.218Z,1035.14
2023-02-06T09:01:24.467Z,1035.15
2023-02-06T09:02:24.527Z,1035.14
2023-02-06T09:03:26.308Z,1035.14
2023-02-06T09:04:24.426Z,1035.14
2023-02-06T09:05:24.424Z,1035.17
2023-02-06T09:06:24.422Z,1035.19
2023-02-06T09:07:24.434Z,1035.24
2023-02-06T09:08:24.415Z,1035.27
2023-02-06T09:09:26.274Z,1035.28
2023-02-06T09:10:27.669Z,1035.31
2023-02-06T09:11:24.405Z,1035.31
2023-02-06T09:12:26.324Z,1035.32
2023-02-06T09:13:26.288Z,1035.24
2023-02-06T09:14:24.388Z,1035.23
2023-02-06T09:15:24.391Z,1035.24
2023-02-06T09:16:26.374Z,1035.19
2023-02-06T09:17:26.766Z,1035.16
2023-02-06T09:18:24.376Z,1035.15
2023-02-06T09:19:26.356Z,1035.12
2023-02-06T09:20:24.390Z,1035.14
2023-02-06T09:21:26.296Z,1035.13
2023-02-06T09:22:26.286Z,1035.09
2023-02-06T09:23:26.269Z,1035.13
2023-02-06T09:24:26.283Z,1035.15
2023-02-06T09:25:28.221Z,1035.18
2023-02-06T09:26:25.327Z,1035.17
2023-02-06T09:27:26.506Z,1035.22
2023-02-06T09:28:26.296Z,1035.21
2023-02-06T09:30:26.289Z,1035.18
2023-02-06T09:31:26.406Z,1035.18
2023-02-06T09:32:26.276Z,1035.20
2023-02-06T09:33:26.277Z,1035.24
2023-02-06T09:34:26.308Z,1035.24
2023-02-06T09:35:24.448Z,1035.22
2023-02-06T09:36:24.294Z,1035.16
2023-02-06T09:37:24.286Z,1035.19
2023-02-06T09:38:24.280Z,1035.19
2023-02-06T09:39:25.804Z,1035.18
2023-02-06T09:40:24.279Z,1035.18
2023-02-06T09:42:24.264Z,1035.19
2023-02-06T09:43:25.820Z,1035.19
2023-02-06T09:44:24.273Z,1035.20
2023-02-06T09:45:24.242Z,1035.24
2023-02-06T09:46:24.286Z,1035.25
2023-02-06T09:47:24.602Z,1035.23
2023-02-06T09:48:25.811Z,1035.19
2023-02-06T09:49:25.796Z,1035.24
2023-02-06T09:50:25.803Z,1035.18
2023-02-06T09:51:25.832Z,1035.14
2023-02-06T09:52:25.805Z,1035.13
2023-02-06T09:53:25.786Z,1035.21
2023-02-06T09:54:25.804Z,1035.18
2023-02-06T09:55:26.251Z,1035.14
2023-02-06T09:56:25.915Z,1035.18
2023-02-06T09:57:25.832Z,1035.09
2023-02-06T09:58:24.192Z,1035.07
2023-02-06T09:59:25.795Z,1035.07
2023-02-06T10:00:25.800Z,1035.03
2023-02-06T10:01:25.857Z,1035.01
2023-02-06T10:02:24.357Z,1035.02
2023-02-06T10:13:41.790Z,1035.00
2023-02-06T10:14:39.755Z,1034.96
2023-02-06T10:15:39.771Z,1034.94
2023-02-06T10:17:40.769Z,1035.01
2023-02-06T10:18:41.266Z,1034.96
2023-02-06T10:19:41.286Z,1034.92
2023-02-06T10:20:41.281Z,1034.87
2023-02-06T10:21:41.260Z,1034.90
2023-02-06T10:23:39.710Z,1034.87
2023-02-06T10:24:39.747Z,1034.84
2023-02-06T10:25:41.275Z,1034.80
2023-02-06T10:26:39.778Z,1034.78
2023-02-06T10:27:39.700Z,1034.78
2023-02-06T10:28:39.787Z,1034.78
2023-02-06T10:29:39.759Z,1034.80
2023-02-06T10:30:41.829Z,1034.80
2023-02-06T10:31:39.800Z,1034.79
2023-02-06T10:32:39.705Z,1034.75
2023-02-06T10:33:39.986Z,1034.76
2023-02-06T10:34:41.289Z,1034.78
2023-02-06T10:35:39.771Z,1034.74
2023-02-06T10:36:39.650Z,1034.74
2023-02-06T10:37:39.682Z,1034.71
2023-02-06T10:38:40.807Z,1034.71
2023-02-06T10:39:39.649Z,1034.71
2023-02-06T10:40:39.720Z,1034.71
2023-02-06T10:41:39.820Z,1034.67
2023-02-06T10:42:39.736Z,1034.74
2023-02-06T10:43:41.409Z,1034.76
2023-02-06T10:44:39.894Z,1034.74
2023-02-06T10:45:40.650Z,1034.74
2023-02-06T10:46:40.334Z,1034.77
2023-02-06T10:47:42.359Z,1034.76
2023-02-06T10:48:41.353Z,1034.75
2023-02-06T10:49:40.307Z,1034.82
2023-02-06T10:50:39.593Z,1034.81
2023-02-06T10:51:41.290Z,1034.84
2023-02-06T10:52:39.588Z,1034.85
2023-02-06T10:53:41.311Z,1034.86
2023-02-06T10:54:41.312Z,1034.87
2023-02-06T10:56:41.312Z,1034.90
2023-02-06T10:57:41.301Z,1034.93
2023-02-06T10:58:41.322Z,1034.94
2023-02-06T10:59:39.554Z,1034.90
2023-02-06T11:00:39.835Z,1034.81
2023-02-06T11:01:39.840Z,1034.79
2023-02-06T11:02:41.312Z,1034.76
2023-02-06T11:03:39.912Z,1034.80
2023-02-06T11:04:39.569Z,1034.85
2023-02-06T11:05:39.947Z,1034.81
2023-02-06T11:06:40.814Z,1034.79
2023-02-06T11:07:39.535Z,1034.77
2023-02-06T11:08:39.516Z,1034.75
2023-02-06T11:09:40.508Z,1034.76
2023-02-06T11:10:40.867Z,1034.80
2023-02-06T11:11:39.507Z,1034.84
2023-02-06T11:12:41.307Z,1034.79
2023-02-06T11:13:41.315Z,1034.79
2023-02-06T11:14:41.330Z,1034.77
2023-02-06T11:15:41.331Z,1034.72
2023-02-06T11:16:41.355Z,1034.70
2023-02-06T11:17:41.330Z,1034.67
2023-02-06T11:18:41.314Z,1034.67
2023-02-06T11:19:41.337Z,1034.70
2023-02-06T11:20:41.357Z,1034.66
2023-02-06T11:21:41.355Z,1034.73
2023-02-06T11:22:51.293Z,1034.70
2023-02-06T11:23:40.470Z,1034.69
2023-02-06T11:24:41.319Z,1034.70
2023-02-06T11:25:41.337Z,1034.68
2023-02-06T11:26:41.323Z,1034.68
2023-02-06T11:27:43.042Z,1034.71
2023-02-06T11:28:41.328Z,1034.71
2023-02-06T11:29:41.332Z,1034.68
2023-02-06T11:30:39.865Z,1034.67
2023-02-06T11:31:39.508Z,1034.70
2023-02-06T11:32:43.918Z,1034.73
2023-02-06T11:33:39.448Z,1034.75
2023-02-06T11:34:39.449Z,1034.77
2023-02-06T11:35:40.928Z,1034.76
2023-02-06T11:36:39.421Z,1034.77
2023-02-06T11:37:39.434Z,1034.72
2023-02-06T11:38:39.402Z,1034.75
2023-02-06T11:39:39.490Z,1034.70
2023-02-06T11:40:41.346Z,1034.70
2023-02-06T11:41:39.406Z,1034.65
2023-02-06T11:42:41.346Z,1034.65
2023-02-06T11:43:40.380Z,1034.70
2023-02-06T11:44:41.351Z,1034.67
2023-02-06T11:45:41.561Z,1034.63
2023-02-06T11:46:41.357Z,1034.68
2023-02-06T11:47:41.338Z,1034.68
2023-02-06T11:48:39.377Z,1034.69
2023-02-06T11:49:41.436Z,1034.59
2023-02-06T11:50:42.355Z,1034.59
2023-02-06T11:51:41.350Z,1034.55
2023-02-06T11:52:41.350Z,1034.51
2023-02-06T11:53:40.875Z,1034.54
2023-02-06T11:54:39.363Z,1034.58
2023-02-06T11:55:40.852Z,1034.58
2023-02-06T11:56:40.863Z,1034.58
2023-02-06T11:57:40.841Z,1034.61
2023-02-06T11:58:39.328Z,1034.61
2023-02-06T11:59:40.886Z,1034.64
2023-02-06T12:00:40.075Z,1034.59
2023-02-06T12:01:39.867Z,1034.56
2023-02-06T12:02:39.320Z,1034.50
2023-02-06T12:03:40.881Z,1034.52
2023-02-06T12:04:40.855Z,1034.50
2023-02-06T12:05:39.621Z,1034.50
2023-02-06T12:06:40.866Z,1034.50
2023-02-06T12:07:40.859Z,1034.48
2023-02-06T12:08:40.292Z,1034.47
2023-02-06T12:09:39.299Z,1034.50
2023-02-06T12:10:39.288Z,1034.45
2023-02-06T12:11:40.863Z,1034.47
2023-02-06T12:12:40.867Z,1034.50
2023-02-06T12:13:39.285Z,1034.49
2023-02-06T12:14:39.273Z,1034.50
2023-02-06T12:15:46.621Z,1034.53
2023-02-06T12:16:42.967Z,1034.52
2023-02-06T12:17:39.380Z,1034.52
2023-02-06T12:18:40.889Z,1034.48
2023-02-06T12:19:41.434Z,1034.48
2023-02-06T12:20:39.256Z,1034.47
2023-02-06T12:21:39.273Z,1034.51
2023-02-06T12:22:40.897Z,1034.53
2023-02-06T12:23:39.238Z,1034.52
2023-02-06T12:24:39.231Z,1034.56
2023-02-06T12:25:39.402Z,1034.50
2023-02-06T12:26:40.881Z,1034.51
2023-02-06T12:27:39.681Z,1034.49
2023-02-06T12:28:40.881Z,1034.48
2023-02-06T12:29:40.904Z,1034.49
2023-02-06T12:30:39.318Z,1034.47
2023-02-06T12:31:40.951Z,1034.44
2023-02-06T12:32:39.202Z,1034.48
2023-02-06T12:33:39.198Z,1034.48
2023-02-06T12:34:40.890Z,1034.49
2023-02-06T12:35:39.313Z,1034.43
2023-02-06T12:36:40.886Z,1034.45
2023-02-06T12:37:40.902Z,1034.44
2023-02-06T12:38:39.463Z,1034.44
2023-02-06T12:39:40.992Z,1034.36
2023-02-06T12:40:42.063Z,1034.37
2023-02-06T12:41:40.879Z,1034.38
2023-02-06T12:42:40.892Z,1034.36
2023-02-06T12:43:39.163Z,1034.34
2023-02-06T12:44:39.162Z,1034.34
2023-02-06T12:45:39.483Z,1034.35
2023-02-06T12:46:39.148Z,1034.34
2023-02-06T12:47:40.886Z,1034.36
2023-02-06T12:48:40.895Z,1034.37
2023-02-06T12:49:40.882Z,1034.39
2023-02-06T12:50:40.883Z,1034.41
2023-02-06T12:51:40.894Z,1034.40
2023-02-06T12:52:40.886Z,1034.38
2023-02-06T12:53:40.937Z,1034.35
2023-02-06T12:54:40.886Z,1034.32
2023-02-06T12:55:39.341Z,1034.37
2023-02-06T12:56:40.894Z,1034.34
2023-02-06T12:57:40.890Z,1034.35
2023-02-06T12:58:40.907Z,1034.38
2023-02-06T12:59:55.685Z,1034.41
2023-02-06T13:00:39.099Z,1034.39
2023-02-06T13:01:40.906Z,1034.40
2023-02-06T13:02:40.961Z,1034.43
2023-02-06T13:03:40.911Z,1034.43
2023-02-06T13:04:40.906Z,1034.40
2023-02-06T13:05:40.905Z,1034.36
2023-02-06T13:06:40.913Z,1034.32
2023-02-06T13:07:49.096Z,1034.33
2023-02-06T13:08:39.086Z,1034.33
2023-02-06T13:09:41.687Z,1034.33
2023-02-06T13:10:39.201Z,1034.35
2023-02-06T13:11:40.922Z,1034.37
2023-02-06T13:12:39.061Z,1034.34
2023-02-06T13:13:39.065Z,1034.34
2023-02-06T13:14:40.110Z,1034.30
2023-02-06T13:15:39.369Z,1034.27
2023-02-06T13:16:40.924Z,1034.24
2023-02-06T13:17:40.063Z,1034.20
2023-02-06T13:18:40.908Z,1034.23
2023-02-06T13:19:39.048Z,1034.27
2023-02-06T13:20:40.915Z,1034.28
2023-02-06T13:21:39.033Z,1034.24
2023-02-06T13:22:40.937Z,1034.22
2023-02-06T13:23:40.036Z,1034.11
2023-02-06T13:24:40.029Z,1034.10
2023-02-06T13:25:40.934Z,1034.02
2023-02-06T13:26:40.946Z,1033.98
2023-02-06T13:27:40.978Z,1033.94
2023-02-06T13:28:40.924Z,1033.97
2023-02-06T13:29:39.024Z,1034.01
2023-02-06T13:30:41.055Z,1033.99
2023-02-06T13:31:39.068Z,1034.00
2023-02-06T13:32:41.990Z,1034.05
2023-02-06T13:33:38.998Z,1034.04
2023-02-06T13:34:40.941Z,1033.97
2023-02-06T13:35:40.932Z,1033.97
2023-02-06T13:36:40.953Z,1034.02
2023-02-06T13:37:40.933Z,1033.99
2023-02-06T13:38:40.447Z,1034.05
2023-02-06T13:39:39.995Z,1034.04
2023-02-06T13:40:38.990Z,1034.03
2023-02-06T13:41:38.995Z,1034.02
2023-02-06T13:42:38.985Z,1033.99
2023-02-06T13:43:40.954Z,1033.94
2023-02-06T13:44:38.980Z,1033.95
2023-02-06T13:45:39.234Z,1033.90
2023-02-06T13:46:39.053Z,1033.90
2023-02-06T13:47:38.983Z,1033.92
2023-02-06T13:48:40.458Z,1033.89
2023-02-06T13:49:38.974Z,1033.91
2023-02-06T13:50:39.971Z,1033.95
2023-02-06T13:51:38.959Z,1033.94
2023-02-06T13:52:40.960Z,1033.98
2023-02-06T13:53:40.966Z,1033.99
2023-02-06T13:54:39.956Z,1034.01
2023-02-06T13:55:40.461Z,1034.04
2023-02-06T13:56:38.964Z,1034.08
2023-02-06T13:57:40.476Z,1034.06
2023-02-06T13:58:39.967Z,1034.09
2023-02-06T13:59:40.451Z,1034.10
2023-02-06T14:00:40.453Z,1034.09
2023-02-06T14:01:38.956Z,1034.10
2023-02-06T14:02:40.497Z,1034.13
2023-02-06T14:03:40.487Z,1034.14
2023-02-06T14:04:40.469Z,1034.15
2023-02-06T14:05:39.934Z,1034.12
2023-02-06T14:06:40.455Z,1034.14
2023-02-06T14:07:40.467Z,1034.15
2023-02-06T14:08:39.974Z,1034.17
2023-02-06T14:09:41.973Z,1034.14
2023-02-06T14:10:38.924Z,1034.12
2023-02-06T14:11:38.921Z,1034.16
2023-02-06T14:12:38.918Z,1034.12
2023-02-06T14:13:38.939Z,1034.14
2023-02-06T14:14:40.475Z,1034.10
2023-02-06T14:15:40.182Z,1034.13
2023-02-06T14:16:38.903Z,1034.12
2023-02-06T14:17:40.464Z,1034.15
2023-02-06T14:18:38.910Z,1034.10
2023-02-06T14:19:39.991Z,1034.13
2023-02-06T14:20:38.892Z,1034.08
2023-02-06T14:21:40.479Z,1034.12
2023-02-06T14:22:40.470Z,1034.09
2023-02-06T14:23:39.884Z,1034.12
2023-02-06T14:24:40.505Z,1034.13
2023-02-06T14:25:39.253Z,1034.16
2023-02-06T14:26:40.474Z,1034.13
2023-02-06T14:27:40.473Z,1034.16
2023-02-06T14:28:40.009Z,1034.18
2023-02-06T14:29:40.508Z,1034.16
2023-02-06T14:30:40.542Z,1034.18
2023-02-06T14:31:40.522Z,1034.12
2023-02-06T14:32:40.474Z,1034.17
2023-02-06T14:33:40.505Z,1034.19
2023-02-06T14:34:40.488Z,1034.18
2023-02-06T14:35:40.475Z,1034.18
2023-02-06T14:36:40.484Z,1034.17
2023-02-06T14:37:40.504Z,1034.18
2023-02-06T14:38:40.482Z,1034.20
2023-02-06T14:39:40.492Z,1034.18
2023-02-06T14:40:40.505Z,1034.18
2023-02-06T14:41:40.480Z,1034.15
2023-02-06T14:42:40.512Z,1034.18
2023-02-06T14:43:40.487Z,1034.16
2023-02-06T14:44:40.486Z,1034.11
2023-02-06T14:45:42.501Z,1034.08
2023-02-06T14:46:38.923Z,1034.12
2023-02-06T14:47:40.491Z,1034.06
2023-02-06T14:48:39.860Z,1034.08
2023-02-06T14:49:40.509Z,1034.09
2023-02-06T14:50:40.524Z,1034.16
2023-02-06T14:51:40.517Z,1034.14
2023-02-06T14:52:38.857Z,1034.12
2023-02-06T14:53:40.498Z,1034.12
2023-02-06T14:54:40.506Z,1034.10
2023-02-06T14:55:40.658Z,1034.08
2023-02-06T14:56:40.500Z,1034.09
2023-02-06T14:57:40.502Z,1034.07
2023-02-06T14:58:40.499Z,1034.05
2023-02-06T14:59:40.502Z,1034.03
2023-02-06T15:00:40.593Z,1034.00
2023-02-06T15:01:40.515Z,1034.00
2023-02-06T15:02:38.851Z,1034.00
2023-02-06T15:03:40.576Z,1033.98
2023-02-06T15:04:38.863Z,1034.00
2023-02-06T15:05:40.527Z,1033.98
2023-02-06T15:06:40.510Z,1033.99
2023-02-06T15:07:38.867Z,1033.94
2023-02-06T15:08:38.856Z,1034.00
2023-02-06T15:09:40.517Z,1033.98
2023-02-06T15:10:40.536Z,1033.98
2023-02-06T15:11:40.528Z,1033.93
2023-02-06T15:12:38.856Z,1033.95
2023-02-06T15:13:38.844Z,1033.92
2023-02-06T15:14:40.529Z,1033.92
2023-02-06T15:15:42.348Z,1033.91
2023-02-06T15:16:38.879Z,1033.95
2023-02-06T15:17:38.857Z,1033.95
2023-02-06T15:18:40.037Z,1033.92
2023-02-06T15:19:39.841Z,1033.94
2023-02-06T15:20:39.089Z,1033.94
2023-02-06T15:21:40.542Z,1033.91
2023-02-06T15:22:38.846Z,1033.93
2023-02-06T15:23:40.539Z,1033.94
2023-02-06T15:24:39.839Z,1033.96
2023-02-06T15:25:38.842Z,1033.91
2023-02-06T15:26:40.542Z,1033.86
2023-02-06T15:27:39.837Z,1033.88
2023-02-06T15:28:40.548Z,1033.84
2023-02-06T15:29:39.851Z,1033.79
2023-02-06T15:30:40.972Z,1033.78
2023-02-06T15:31:38.847Z,1033.78
2023-02-06T15:32:40.540Z,1033.74
2023-02-06T15:33:40.546Z,1033.78
2023-02-06T15:34:40.534Z,1033.76
2023-02-06T15:35:40.575Z,1033.80
2023-02-06T15:36:40.541Z,1033.80
2023-02-06T15:37:40.555Z,1033.78
2023-02-06T15:38:40.546Z,1033.75
2023-02-06T15:39:40.571Z,1033.79
2023-02-06T15:40:40.547Z,1033.81
2023-02-06T15:41:40.558Z,1033.86
2023-02-06T15:42:40.553Z,1033.88
2023-02-06T15:43:40.553Z,1033.89
2023-02-06T15:44:40.062Z,1033.88
2023-02-06T15:45:40.600Z,1033.86
2023-02-06T15:46:40.562Z,1033.84
2023-02-06T15:47:42.068Z,1033.89
2023-02-06T15:48:42.655Z,1033.87
2023-02-06T15:49:40.580Z,1033.86
2023-02-06T15:50:40.577Z,1033.83
2023-02-06T15:51:40.575Z,1033.87
2023-02-06T15:52:40.087Z,1033.85
2023-02-06T15:53:39.778Z,1033.84
2023-02-06T15:54:38.775Z,1033.86
2023-02-06T15:55:40.565Z,1033.84
2023-02-06T15:56:40.566Z,1033.82
2023-02-06T15:57:40.580Z,1033.82
2023-02-06T15:58:39.773Z,1033.81
2023-02-06T15:59:40.562Z,1033.81
2023-02-06T16:00:40.577Z,1033.83
2023-02-06T16:12:53.333Z,1033.78
2023-02-06T16:13:53.299Z,1033.76
2023-02-06T16:14:52.476Z,1033.78
2023-02-06T16:15:53.314Z,1033.74
2023-02-06T16:16:52.604Z,1033.77
2023-02-06T16:17:51.459Z,1033.79
2023-02-06T16:18:53.308Z,1033.79
2023-02-06T16:19:51.445Z,1033.81
2023-02-06T16:20:53.308Z,1033.83
2023-02-06T16:21:51.428Z,1033.80
2023-02-06T16:22:51.439Z,1033.84
2023-02-06T16:23:53.310Z,1033.86
2023-02-06T16:24:52.811Z,1033.89
2023-02-06T16:25:52.318Z,1033.85
2023-02-06T16:26:51.404Z,1033.91
2023-02-06T16:27:53.404Z,1033.87
2023-02-06T16:28:52.833Z,1033.88
2023-02-06T16:29:51.399Z,1033.88
2023-02-06T16:30:53.375Z,1033.87
2023-02-06T16:31:51.401Z,1033.83
2023-02-06T16:32:55.313Z,1033.83
2023-02-06T16:33:51.375Z,1033.86